createdAt,value
2023-03-31T00:01:44.462Z,99163.19
2023-03-31T00:04:14.050Z,99170.53
2023-03-31T00:06:44.012Z,99178.59
2023-03-31T00:09:24.895Z,99173.78
2023-03-31T00:11:55.274Z,99177.69
2023-03-31T00:14:24.135Z,99172.69
2023-03-31T00:16:53.088Z,99146.25
2023-03-31T00:19:21.966Z,99162.13
2023-03-31T00:21:51.921Z,99167.09
2023-03-31T00:24:20.722Z,99153.22
2023-03-31T00:26:50.236Z,99155.16
2023-03-31T00:29:18.945Z,99141.00
2023-03-31T00:31:48.492Z,99134.44
2023-03-31T00:34:17.239Z,99138.31
2023-03-31T00:36:48.879Z,99142.50
2023-03-31T00:39:20.308Z,99135.66
2023-03-31T00:41:49.169Z,99134.75
2023-03-31T00:44:25.901Z,99131.44
2023-03-31T00:47:20.287Z,99127.78
2023-03-31T00:49:57.182Z,99113.94
2023-03-31T00:52:38.799Z,99122.63
2023-03-31T00:55:15.643Z,99117.41
2023-03-31T00:57:48.260Z,99111.81
2023-03-31T01:00:18.828Z,99116.84
2023-03-31T01:02:59.114Z,99110.81
2023-03-31T01:05:47.490Z,99117.81
2023-03-31T01:08:20.214Z,99108.38
2023-03-31T01:10:58.311Z,99111.44
2023-03-31T01:13:28.062Z,99106.63
2023-03-31T01:15:56.941Z,99113.50
2023-03-31T01:18:28.317Z,99113.41
2023-03-31T01:22:06.009Z,99117.03
2023-03-31T01:25:38.837Z,99111.91
2023-03-31T01:28:38.934Z,99098.25
2023-03-31T01:32:05.127Z,99104.69
2023-03-31T01:35:11.431Z,99112.66
2023-03-31T01:38:33.330Z,99108.44
2023-03-31T01:41:47.872Z,99108.34
2023-03-31T01:44:52.552Z,99113.72
2023-03-31T01:47:44.771Z,99102.63
2023-03-31T01:50:58.724Z,99107.41
2023-03-31T01:54:08.812Z,99108.44
2023-03-31T01:56:52.845Z,99101.25
2023-03-31T01:59:59.694Z,99103.06
2023-03-31T02:03:05.615Z,99098.53
2023-03-31T02:05:45.076Z,99092.44
2023-03-31T02:08:36.696Z,99089.72
2023-03-31T02:11:06.376Z,99096.41
2023-03-31T02:13:38.640Z,99085.69
2023-03-31T02:16:19.261Z,99072.56
2023-03-31T02:18:50.381Z,99089.75
2023-03-31T02:21:22.962Z,99088.03
2023-03-31T02:23:52.979Z,99077.19
2023-03-31T02:26:31.382Z,99086.84
2023-03-31T02:29:00.112Z,99086.84
2023-03-31T02:31:51.860Z,99091.16
2023-03-31T02:34:21.183Z,99089.13
2023-03-31T02:36:51.434Z,99092.03
2023-03-31T02:39:31.473Z,99088.66
2023-03-31T02:42:07.516Z,99086.28
2023-03-31T02:44:38.859Z,99084.59
2023-03-31T02:47:15.782Z,99085.88
2023-03-31T02:49:54.321Z,99085.44
2023-03-31T02:52:59.383Z,99082.00
2023-03-31T02:56:27.416Z,99093.81
2023-03-31T02:59:25.789Z,99087.03
2023-03-31T03:02:21.703Z,99088.94
2023-03-31T03:05:39.494Z,99082.53
2023-03-31T03:09:02.496Z,99083.38
2023-03-31T03:11:53.410Z,99082.38
2023-03-31T03:14:49.556Z,99081.31
2023-03-31T03:17:35.451Z,99089.72
2023-03-31T03:20:10.901Z,99090.66
2023-03-31T03:22:41.413Z,99083.25
2023-03-31T03:25:14.516Z,99093.84
2023-03-31T03:27:42.360Z,99092.66
2023-03-31T03:30:14.447Z,99084.84
2023-03-31T03:32:44.037Z,99088.16
2023-03-31T03:35:13.178Z,99080.84
2023-03-31T03:37:42.731Z,99080.41
2023-03-31T03:40:12.774Z,99075.69
2023-03-31T03:42:41.537Z,99074.78
2023-03-31T03:45:11.586Z,99076.22
2023-03-31T03:47:40.692Z,99076.06
2023-03-31T03:50:14.027Z,99077.13
2023-03-31T03:52:44.696Z,99071.50
2023-03-31T03:55:14.486Z,99070.44
2023-03-31T03:57:43.294Z,99079.63
2023-03-31T04:00:12.880Z,99073.69
2023-03-31T04:02:42.563Z,99076.19
2023-03-31T04:05:11.432Z,99074.66
2023-03-31T04:07:41.137Z,99073.19
2023-03-31T04:10:10.559Z,99086.28
2023-03-31T04:12:40.070Z,99078.38
2023-03-31T04:15:09.847Z,99073.47
2023-03-31T04:17:39.660Z,99085.59
2023-03-31T04:20:11.929Z,99087.22
2023-03-31T04:22:41.237Z,99082.75
2023-03-31T04:25:16.982Z,99079.66
2023-03-31T04:27:55.105Z,99074.88
2023-03-31T04:30:33.680Z,99079.09
2023-03-31T04:33:06.849Z,99087.06
2023-03-31T04:35:50.867Z,99078.75
2023-03-31T04:38:27.556Z,99075.84
2023-03-31T04:40:56.582Z,99069.84
2023-03-31T04:43:25.516Z,99067.94
2023-03-31T04:45:54.321Z,99067.69
2023-03-31T04:48:22.296Z,99060.50
2023-03-31T04:50:51.002Z,99070.22
2023-03-31T04:53:18.932Z,99072.34
2023-03-31T04:55:47.640Z,99060.16
2023-03-31T04:58:16.743Z,99061.19
2023-03-31T05:00:45.651Z,99061.75
2023-03-31T05:03:14.809Z,99067.91
2023-03-31T05:05:42.811Z,99060.06
2023-03-31T05:08:11.542Z,99076.31
2023-03-31T05:10:40.257Z,99066.09
2023-03-31T05:13:11.369Z,99073.03
2023-03-31T05:15:40.816Z,99060.56
2023-03-31T05:18:09.562Z,99050.94
2023-03-31T05:20:37.542Z,99075.38
2023-03-31T05:23:07.149Z,99068.09
2023-03-31T05:25:35.420Z,99072.81
2023-03-31T05:28:04.672Z,99073.03
2023-03-31T05:30:32.741Z,99060.38
2023-03-31T05:33:01.289Z,99066.50
2023-03-31T05:35:30.254Z,99066.09
2023-03-31T05:37:58.893Z,99071.28
2023-03-31T05:40:26.750Z,99073.84
2023-03-31T05:42:54.571Z,99070.66
2023-03-31T05:45:23.294Z,99073.78
2023-03-31T05:47:52.043Z,99068.97
2023-03-31T05:50:20.901Z,99069.56
2023-03-31T05:52:48.716Z,99065.16
2023-03-31T05:55:18.829Z,99075.03
2023-03-31T05:57:48.331Z,99078.16
2023-03-31T06:00:18.050Z,99078.69
2023-03-31T06:02:46.074Z,99074.97
2023-03-31T06:05:14.918Z,99076.00
2023-03-31T06:07:43.679Z,99069.41
2023-03-31T06:10:12.585Z,99071.16
2023-03-31T06:12:41.400Z,99071.59
2023-03-31T06:15:10.536Z,99067.28
2023-03-31T06:17:39.362Z,99067.25
2023-03-31T06:20:24.080Z,99073.00
2023-03-31T06:22:55.432Z,99092.44
2023-03-31T06:25:24.272Z,99090.66
2023-03-31T06:27:52.118Z,99085.28
2023-03-31T06:30:20.872Z,99101.22
2023-03-31T06:32:48.641Z,99098.88
2023-03-31T06:35:17.457Z,99101.88
2023-03-31T06:37:45.239Z,99107.59
2023-03-31T06:40:13.538Z,99109.75
2023-03-31T06:42:42.279Z,99108.34
2023-03-31T06:45:11.425Z,99093.00
2023-03-31T06:47:41.638Z,99088.25
2023-03-31T06:50:11.729Z,99088.28
2023-03-31T06:52:41.371Z,99081.88
2023-03-31T06:55:10.735Z,99091.25
2023-03-31T06:57:39.310Z,99099.31
2023-03-31T07:00:09.467Z,99093.78
2023-03-31T07:02:38.267Z,99103.00
2023-03-31T07:05:06.943Z,99093.13
2023-03-31T07:07:35.686Z,99097.91
2023-03-31T07:10:05.023Z,99083.28
2023-03-31T07:12:34.552Z,99083.16
2023-03-31T07:15:03.345Z,99081.72
2023-03-31T07:17:31.974Z,99085.94
2023-03-31T07:20:00.724Z,99092.16
2023-03-31T07:22:29.389Z,99089.69
2023-03-31T07:24:57.942Z,99094.88
2023-03-31T07:27:26.580Z,99084.97
2023-03-31T07:29:55.610Z,99065.94
2023-03-31T07:32:24.840Z,99061.53
2023-03-31T07:34:54.183Z,99061.25
2023-03-31T07:37:22.879Z,99057.47
2023-03-31T07:39:51.307Z,99062.03
2023-03-31T07:42:19.225Z,99056.63
2023-03-31T07:44:47.794Z,99057.22
2023-03-31T07:47:16.591Z,99058.75
2023-03-31T07:49:44.405Z,99070.00
2023-03-31T07:52:13.054Z,99058.53
2023-03-31T07:54:41.683Z,99076.84
2023-03-31T07:57:10.421Z,99076.75
2023-03-31T07:59:39.244Z,99066.31
2023-03-31T08:02:08.092Z,99063.59
2023-03-31T08:04:35.993Z,99054.94
2023-03-31T08:07:05.542Z,99056.03
2023-03-31T08:09:33.308Z,99056.19
2023-03-31T08:12:01.146Z,99043.13
2023-03-31T08:14:40.503Z,99037.44
2023-03-31T08:17:11.094Z,99035.22
2023-03-31T08:19:39.936Z,99028.25
2023-03-31T08:22:08.623Z,99033.59
2023-03-31T08:24:37.280Z,99020.53
2023-03-31T08:27:11.951Z,99025.63
2023-03-31T08:29:40.263Z,99027.94
2023-03-31T08:32:09.147Z,99022.84
2023-03-31T08:34:38.342Z,99024.56
2023-03-31T08:37:06.231Z,99017.97
2023-03-31T08:39:34.455Z,99010.53
2023-03-31T08:42:41.335Z,99004.63
2023-03-31T08:45:25.275Z,99000.16
2023-03-31T08:48:27.672Z,98997.16
2023-03-31T08:51:42.497Z,98994.34
2023-03-31T08:54:42.461Z,98984.28
2023-03-31T08:57:26.661Z,98981.56
2023-03-31T08:59:59.025Z,98970.91
2023-03-31T09:02:53.339Z,98975.06
2023-03-31T09:05:28.712Z,98974.94
2023-03-31T09:08:13.311Z,98972.84
2023-03-31T09:11:35.787Z,98963.41
2023-03-31T09:14:16.573Z,98950.81
2023-03-31T09:17:29.201Z,98950.53
2023-03-31T09:20:33.565Z,98947.28
2023-03-31T09:23:43.264Z,98941.22
2023-03-31T09:26:36.644Z,98933.75
2023-03-31T09:29:40.782Z,98926.91
2023-03-31T09:32:18.218Z,98917.56
2023-03-31T09:34:52.619Z,98908.03
2023-03-31T09:37:27.559Z,98918.41
2023-03-31T09:39:55.319Z,98911.47
2023-03-31T09:42:23.092Z,98906.47
2023-03-31T09:44:51.973Z,98898.19
2023-03-31T09:47:40.603Z,98903.09
2023-03-31T09:50:11.019Z,98902.78
2023-03-31T09:52:49.133Z,98894.91
2023-03-31T09:55:45.821Z,98892.19
2023-03-31T09:58:17.865Z,98894.44
2023-03-31T10:01:05.505Z,98891.53
2023-03-31T10:03:38.083Z,98882.53
2023-03-31T10:06:11.311Z,98880.19
2023-03-31T10:08:49.703Z,98881.38
2023-03-31T10:11:18.841Z,98876.66
2023-03-31T10:14:15.934Z,98873.72
2023-03-31T10:16:56.820Z,98877.94
2023-03-31T10:19:39.984Z,98865.28
2023-03-31T10:22:24.009Z,98871.28
2023-03-31T10:24:54.257Z,98859.88
2023-03-31T10:27:30.818Z,98863.59
2023-03-31T10:30:04.841Z,98854.44
2023-03-31T10:32:41.036Z,98851.34
2023-03-31T10:35:28.104Z,98844.84
2023-03-31T10:38:12.603Z,98826.97
2023-03-31T10:40:56.347Z,98834.03
2023-03-31T10:43:59.081Z,98828.59
2023-03-31T10:46:51.470Z,98820.06
2023-03-31T10:49:23.194Z,98810.41
2023-03-31T10:51:59.455Z,98810.00
2023-03-31T10:54:27.927Z,98806.31
2023-03-31T10:57:05.749Z,98807.19
2023-03-31T10:59:58.934Z,98802.88
2023-03-31T11:02:59.763Z,98807.19
2023-03-31T11:05:52.052Z,98797.63
2023-03-31T11:08:30.776Z,98799.03
2023-03-31T11:11:53.627Z,98801.19
2023-03-31T11:15:00.146Z,98801.06
2023-03-31T11:18:13.753Z,98793.03
2023-03-31T11:21:35.337Z,98780.09
2023-03-31T11:24:48.874Z,98787.41
2023-03-31T11:27:19.909Z,98780.22
2023-03-31T11:30:52.806Z,98778.50
2023-03-31T11:34:00.697Z,98775.84
2023-03-31T11:36:57.446Z,98767.56
2023-03-31T11:39:54.698Z,98762.66
2023-03-31T11:42:59.412Z,98758.56
2023-03-31T11:45:43.736Z,98745.00
2023-03-31T15:54:42.723Z,98339.19
2023-03-31T15:57:20.282Z,98334.09
2023-03-31T15:59:55.784Z,98318.34
2023-03-31T16:02:47.427Z,98322.22
2023-03-31T16:05:54.407Z,98312.06
2023-03-31T16:08:48.885Z,98289.69
2023-03-31T16:11:31.425Z,98292.41
2023-03-31T16:14:17.005Z,98281.91
2023-03-31T16:16:57.472Z,98283.59
2023-03-31T16:19:39.535Z,98277.47
2023-03-31T16:22:23.579Z,98276.13
2023-03-31T16:24:52.152Z,98278.53
2023-03-31T16:27:20.431Z,98283.63
2023-03-31T16:29:51.464Z,98280.69
2023-03-31T16:32:21.476Z,98280.00
2023-03-31T16:35:03.133Z,98286.94
2023-03-31T16:37:31.341Z,98269.66
2023-03-31T16:40:00.183Z,98276.25
2023-03-31T16:42:28.959Z,98279.47
2023-03-31T16:45:13.003Z,98273.38
2023-03-31T16:47:46.214Z,98279.47
2023-03-31T16:50:26.627Z,98288.94
2023-03-31T16:52:54.812Z,98283.44
2023-03-31T16:55:22.777Z,98295.66
2023-03-31T16:57:54.732Z,98290.22
2023-03-31T17:00:23.520Z,98297.59
2023-03-31T17:03:01.864Z,98292.19
2023-03-31T17:05:46.061Z,98294.56
2023-03-31T17:08:17.089Z,98300.78
2023-03-31T17:11:14.506Z,98295.19
2023-03-31T17:13:44.909Z,98291.41
2023-03-31T17:16:21.915Z,98297.19
2023-03-31T17:18:56.485Z,98298.50
2023-03-31T17:21:31.520Z,98299.75
2023-03-31T17:24:09.436Z,98302.72
2023-03-31T17:26:37.986Z,98307.03
2023-03-31T17:29:06.589Z,98312.25
2023-03-31T17:31:34.441Z,98312.53
2023-03-31T17:34:03.051Z,98310.34
2023-03-31T17:36:31.853Z,98316.63
2023-03-31T17:39:02.830Z,98316.88
2023-03-31T17:41:31.026Z,98321.91
2023-03-31T17:44:04.197Z,98319.34
2023-03-31T17:46:35.982Z,98321.88
2023-03-31T17:49:04.915Z,98316.28
2023-03-31T17:51:34.825Z,98316.41
2023-03-31T17:54:04.238Z,98327.09
2023-03-31T17:56:32.992Z,98308.50
2023-03-31T17:59:02.005Z,98309.59
2023-03-31T18:01:31.337Z,98306.19
2023-03-31T18:04:03.867Z,98309.13
2023-03-31T18:06:32.135Z,98307.47
2023-03-31T18:09:00.143Z,98306.56
2023-03-31T18:11:28.436Z,98297.63
2023-03-31T18:14:00.408Z,98300.91
2023-03-31T18:16:29.666Z,98310.63
2023-03-31T18:18:58.978Z,98304.91
2023-03-31T18:21:27.855Z,98304.91
2023-03-31T18:23:55.809Z,98298.81
2023-03-31T18:26:27.303Z,98291.25
2023-03-31T18:28:59.329Z,98290.03
2023-03-31T18:31:27.481Z,98308.81
2023-03-31T18:33:58.932Z,98317.94
2023-03-31T18:36:28.616Z,98312.31
2023-03-31T18:38:57.574Z,98313.94
2023-03-31T18:41:27.196Z,98316.16
2023-03-31T18:43:55.883Z,98322.81
2023-03-31T18:46:27.286Z,98324.84
2023-03-31T18:48:55.936Z,98317.44
2023-03-31T18:51:24.270Z,98316.59
2023-03-31T18:53:52.179Z,98309.03
2023-03-31T18:56:23.332Z,98301.69
2023-03-31T18:58:51.953Z,98311.56
2023-03-31T19:01:24.482Z,98305.41
2023-03-31T19:03:54.199Z,98299.56
2023-03-31T19:06:22.974Z,98295.06
2023-03-31T19:08:50.902Z,98283.53
2023-03-31T19:11:20.111Z,98286.06
2023-03-31T19:13:48.701Z,98286.50
2023-03-31T19:16:17.853Z,98286.59
2023-03-31T19:18:45.702Z,98282.31
2023-03-31T19:21:13.585Z,98279.09
2023-03-31T19:23:42.579Z,98279.97
2023-03-31T19:26:18.370Z,98286.91
2023-03-31T19:28:48.405Z,98279.28
2023-03-31T19:31:16.802Z,98283.97
2023-03-31T19:33:44.558Z,98287.09
2023-03-31T19:36:15.460Z,98282.66
2023-03-31T19:38:47.293Z,98276.47
2023-03-31T19:41:15.158Z,98277.19
2023-03-31T19:43:43.178Z,98281.94
2023-03-31T19:46:12.816Z,98277.47
2023-03-31T19:48:42.671Z,98283.59
2023-03-31T19:51:11.559Z,98275.69
2023-03-31T19:53:40.996Z,98268.28
2023-03-31T19:56:17.531Z,98271.13
2023-03-31T19:58:46.132Z,98267.44
2023-03-31T20:01:27.853Z,98264.38
2023-03-31T20:03:57.825Z,98256.03
2023-03-31T20:06:30.235Z,98260.19
2023-03-31T20:09:02.264Z,98262.19
2023-03-31T20:11:32.339Z,98249.47
2023-03-31T20:14:01.585Z,98245.91
2023-03-31T20:16:32.101Z,98239.53
2023-03-31T20:19:05.576Z,98246.97
2023-03-31T20:21:39.173Z,98244.22
2023-03-31T20:24:08.134Z,98242.97
2023-03-31T20:26:37.077Z,98236.41
2023-03-31T20:29:05.939Z,98242.72
2023-03-31T20:31:37.876Z,98242.72
2023-03-31T20:34:14.203Z,98243.41
2023-03-31T20:36:45.885Z,98233.38
2023-03-31T20:39:16.535Z,98231.41
2023-03-31T20:41:46.168Z,98223.97
2023-03-31T20:44:15.726Z,98229.97
2023-03-31T20:46:45.272Z,98223.88
2023-03-31T20:49:13.491Z,98225.75
2023-03-31T20:51:42.933Z,98222.34
2023-03-31T20:54:11.180Z,98218.38
2023-03-31T20:56:42.180Z,98226.59
2023-03-31T20:59:15.453Z,98222.34
2023-03-31T21:01:47.468Z,98211.28
2023-03-31T21:04:17.239Z,98209.31
2023-03-31T21:06:49.117Z,98206.19
2023-03-31T21:09:18.141Z,98213.22
2023-03-31T21:11:49.407Z,98202.13
2023-03-31T21:14:17.893Z,98204.13
2023-03-31T21:16:45.954Z,98201.88
2023-03-31T21:19:15.004Z,98200.16
2023-03-31T21:21:43.474Z,98199.03
2023-03-31T21:24:14.941Z,98199.78
2023-03-31T21:26:42.881Z,98196.13
2023-03-31T21:29:10.983Z,98192.88
2023-03-31T21:31:39.310Z,98194.13
2023-03-31T21:34:07.223Z,98203.44
2023-03-31T21:36:35.179Z,98200.31
2023-03-31T21:39:02.995Z,98197.50
2023-03-31T21:41:32.263Z,98194.63
2023-03-31T21:44:02.390Z,98205.09
2023-03-31T21:46:33.514Z,98199.63
2023-03-31T21:49:03.816Z,98203.19
2023-03-31T21:51:35.103Z,98192.63
2023-03-31T21:54:03.048Z,98194.91
2023-03-31T21:56:32.003Z,98195.88
2023-03-31T21:59:01.700Z,98188.47
2023-03-31T22:01:29.678Z,98199.50
2023-03-31T22:03:57.553Z,98192.66
2023-03-31T22:06:25.645Z,98196.75
2023-03-31T22:08:53.437Z,98190.25
2023-03-31T22:11:23.081Z,98202.06
2023-03-31T22:13:51.669Z,98205.28
2023-03-31T22:16:23.201Z,98203.31
2023-03-31T22:18:53.068Z,98203.03
2023-03-31T22:21:27.586Z,98209.13
2023-03-31T22:24:01.488Z,98212.56
2023-03-31T22:26:31.449Z,98216.28
2023-03-31T22:29:00.265Z,98215.66
2023-03-31T22:31:28.728Z,98212.25
2023-03-31T22:33:56.553Z,98216.19
2023-03-31T22:36:24.387Z,98217.59
2023-03-31T22:38:53.010Z,98225.34
2023-03-31T22:41:24.384Z,98222.13
2023-03-31T22:43:52.466Z,98221.88
2023-03-31T22:46:21.364Z,98230.00
2023-03-31T22:48:50.650Z,98217.81
2023-03-31T22:51:18.684Z,98229.88
2023-03-31T22:53:54.515Z,98223.78
2023-03-31T22:56:24.714Z,98219.72
2023-03-31T22:58:53.125Z,98214.09
2023-03-31T23:01:24.424Z,98210.63
2023-03-31T23:03:53.318Z,98207.22
2023-03-31T23:06:21.079Z,98196.88
2023-03-31T23:08:52.733Z,98202.66
2023-03-31T23:11:20.644Z,98188.66
2023-03-31T23:13:48.528Z,98187.88
2023-03-31T23:16:27.591Z,98192.56
2023-03-31T23:18:57.178Z,98186.09
2023-03-31T23:21:28.551Z,98188.31
2023-03-31T23:24:03.131Z,98188.91
2023-03-31T23:26:33.777Z,98182.63
2023-03-31T23:29:04.378Z,98165.16
2023-03-31T23:31:34.605Z,98168.66
2023-03-31T23:34:03.356Z,98173.84
2023-03-31T23:36:31.349Z,98175.22
2023-03-31T23:38:59.185Z,98162.38
2023-03-31T23:41:29.124Z,98169.03
2023-03-31T23:43:58.025Z,98158.56
2023-03-31T23:46:26.247Z,98162.66
2023-03-31T23:48:56.097Z,98170.06
2023-03-31T23:51:24.674Z,98170.97
2023-03-31T23:53:53.136Z,98172.53
2023-03-31T23:56:21.321Z,98169.34
2023-03-31T23:58:49.165Z,98178.59
